Time;durP1;ratioP1;P1;durP2;ratioP2;P2;SDS_P1;SDS_P2;PMS_P1;PMS_P2;Temp;Humidity;BMP_temperature;BMP_pressure;BME280_temperature;BME280_humidity;BME280_pressure;Samples;Min_cycle;Max_cycle;Signal;HPM_P1;HPM_P2
2022/12/06 00:01:56;;;;;;;7.43;3.70;;;9.30;72.60;;;;;;2395568;52;20954;-74
2022/12/06 00:04:24;;;;;;;5.72;3.10;;;9.30;72.60;;;;;;2368576;54;20977;-74
2022/12/06 00:06:50;;;;;;;5.05;2.67;;;9.30;72.50;;;;;;2368758;54;21001;-73
2022/12/06 00:09:19;;;;;;;6.95;2.70;;;9.30;72.50;;;;;;2620494;52;21648;-74
2022/12/06 00:11:45;;;;;;;4.45;2.17;;;9.30;72.50;;;;;;2466894;52;20978;-75
2022/12/06 00:14:12;;;;;;;5.12;2.58;;;9.30;72.50;;;;;;2431617;52;21458;-75
2022/12/06 00:16:39;;;;;;;4.97;2.87;;;9.30;72.50;;;;;;2368658;53;21586;-76
2022/12/06 00:19:06;;;;;;;4.18;2.35;;;9.30;72.50;;;;;;2369035;54;21077;-75
2022/12/06 00:21:35;;;;;;;4.40;2.28;;;9.30;72.50;;;;;;2368233;54;20957;-74
2022/12/06 00:24:06;;;;;;;4.12;2.12;;;9.20;72.40;;;;;;2369214;53;21022;-73
2022/12/06 00:26:34;;;;;;;4.72;2.53;;;9.20;72.40;;;;;;2500874;52;20934;-74
2022/12/06 00:29:01;;;;;;;4.07;2.45;;;9.20;72.30;;;;;;2338329;54;20952;-74
2022/12/06 00:31:28;;;;;;;4.43;2.30;;;9.20;72.40;;;;;;2445695;52;20918;-75
2022/12/06 00:33:58;;;;;;;4.75;2.37;;;9.20;72.40;;;;;;2368892;54;20950;-74
2022/12/06 00:36:29;;;;;;;5.22;2.70;;;9.20;72.40;;;;;;2368320;54;20994;-73
2022/12/06 00:38:58;;;;;;;4.03;2.20;;;9.20;72.40;;;;;;2369158;54;20918;-75
2022/12/06 00:41:27;;;;;;;4.18;2.20;;;9.20;72.30;;;;;;2370458;54;21451;-74
2022/12/06 00:43:54;;;;;;;4.68;2.58;;;9.20;72.40;;;;;;2331973;54;20997;-73
2022/12/06 00:46:26;;;;;;;4.15;2.35;;;9.20;72.40;;;;;;2363284;53;20922;-74
2022/12/06 00:48:53;;;;;;;4.87;3.00;;;9.20;72.40;;;;;;2369424;54;20989;-74
2022/12/06 00:51:22;;;;;;;4.47;2.37;;;9.20;72.40;;;;;;2613778;52;21023;-75
2022/12/06 00:53:48;;;;;;;5.25;2.62;;;9.20;72.40;;;;;;2352286;54;20922;-74
2022/12/06 00:56:15;;;;;;;5.10;2.65;;;9.20;72.40;;;;;;2587415;53;20924;-75
2022/12/06 00:58:41;;;;;;;5.78;3.10;;;9.20;72.40;;;;;;2592034;52;21315;-72
2022/12/06 01:01:10;;;;;;;4.95;2.75;;;9.20;72.40;;;;;;2369151;54;21882;-74
2022/12/06 01:03:37;;;;;;;4.80;2.72;;;9.20;72.40;;;;;;2368578;54;20958;-75
2022/12/06 01:06:05;;;;;;;4.60;2.72;;;9.10;72.40;;;;;;2369339;54;21029;-73
2022/12/06 01:08:31;;;;;;;4.57;2.67;;;9.10;72.30;;;;;;2368505;54;20918;-75
2022/12/06 01:10:58;;;;;;;4.72;2.83;;;9.10;72.30;;;;;;2368562;53;20938;-74
2022/12/06 01:13:25;;;;;;;6.50;3.08;;;9.10;72.20;;;;;;2368153;53;20911;-75
2022/12/06 01:15:53;;;;;;;4.55;2.60;;;9.10;72.20;;;;;;2368675;54;20958;-75
2022/12/06 01:18:19;;;;;;;4.85;2.72;;;9.10;72.20;;;;;;2368332;53;21835;-75
2022/12/06 01:20:46;;;;;;;5.15;2.70;;;9.10;72.10;;;;;;2368743;54;21364;-74
2022/12/06 01:23:13;;;;;;;4.97;2.47;;;9.10;72.20;;;;;;2365764;54;20895;-75
2022/12/06 01:25:48;;;;;;;4.43;2.60;;;9.10;72.30;;;;;;2367899;53;21804;-74
2022/12/06 01:28:14;;;;;;;5.53;3.10;;;9.10;72.10;;;;;;2369240;53;21005;-74
2022/12/06 01:30:44;;;;;;;5.53;3.08;;;9.10;72.30;;;;;;2368787;53;20958;-74
2022/12/06 01:33:12;;;;;;;4.78;2.72;;;9.10;72.20;;;;;;2583347;52;20922;-74
2022/12/06 01:35:42;;;;;;;4.82;2.80;;;9.10;72.30;;;;;;2368976;54;20950;-73
2022/12/06 01:38:09;;;;;;;5.43;2.78;;;9.10;72.20;;;;;;2363768;54;20879;-75
2022/12/06 01:40:43;;;;;;;5.15;3.03;;;9.10;72.30;;;;;;2368517;54;21560;-73
2022/12/06 01:43:46;;;;;;;4.37;2.47;;;9.10;72.20;;;;;;2621361;52;21006;-74
2022/12/06 01:46:37;;;;;;;4.32;2.37;;;9.10;72.00;;;;;;2369318;54;21018;-74
2022/12/06 01:49:17;;;;;;;5.12;2.55;;;9.10;72.00;;;;;;2368996;54;21066;-75
2022/12/06 01:51:48;;;;;;;3.75;2.12;;;9.10;72.10;;;;;;2445544;52;20918;-73
2022/12/06 01:54:15;;;;;;;4.22;2.40;;;9.10;72.40;;;;;;2371443;52;21018;-74
2022/12/06 01:56:41;;;;;;;5.45;2.67;;;9.10;72.50;;;;;;2478791;52;20927;-74
2022/12/06 01:59:09;;;;;;;5.05;2.75;;;9.10;72.50;;;;;;2369183;54;20942;-74
2022/12/06 02:01:35;;;;;;;4.65;2.47;;;9.10;72.50;;;;;;2363323;54;21319;-74
2022/12/06 02:04:01;;;;;;;4.20;2.15;;;9.10;72.50;;;;;;2354205;54;20942;-73
2022/12/06 02:06:30;;;;;;;4.55;2.40;;;9.10;72.40;;;;;;2368761;53;20942;-75
2022/12/06 02:09:03;;;;;;;4.70;2.53;;;9.10;72.30;;;;;;2368018;53;22110;-73
2022/12/06 02:11:30;;;;;;;3.78;2.20;;;9.10;72.20;;;;;;2370738;53;20935;-75
2022/12/06 02:14:00;;;;;;;5.37;2.65;;;9.10;72.30;;;;;;2424085;53;21092;-75
2022/12/06 02:16:58;;;;;;;5.03;2.20;;;9.10;72.30;;;;;;2368461;54;21300;-73
2022/12/06 02:24:17;;;;;;;4.68;2.17;;;9.10;71.90;;;;;;2368290;53;21657;-74
2022/12/06 02:26:48;;;;;;;3.75;1.60;;;9.10;71.30;;;;;;2375931;52;20969;-75
2022/12/06 02:30:43;;;;;;;4.35;2.12;;;9.10;72.20;;;;;;2424317;52;20974;-75
2022/12/06 02:33:33;;;;;;;4.18;2.10;;;9.10;71.50;;;;;;2369372;53;20925;-74
2022/12/06 02:36:27;;;;;;;3.80;1.95;;;9.10;72.40;;;;;;2359160;53;20991;-73
2022/12/06 02:38:57;;;;;;;4.18;2.17;;;9.10;72.10;;;;;;2333125;54;21029;-74
2022/12/06 02:41:34;;;;;;;4.70;2.58;;;9.10;72.50;;;;;;2363593;54;21049;-74
2022/12/06 02:44:03;;;;;;;4.47;2.33;;;9.10;72.50;;;;;;2369230;53;21414;-74
2022/12/06 02:46:35;;;;;;;4.68;2.53;;;9.10;72.50;;;;;;2421510;52;20953;-73
2022/12/06 02:49:03;;;;;;;5.07;2.80;;;9.10;73.00;;;;;;2393203;52;21514;-73
2022/12/06 02:51:31;;;;;;;4.07;2.33;;;9.00;72.20;;;;;;2368613;54;20969;-75
2022/12/06 02:53:59;;;;;;;4.87;2.67;;;9.10;72.30;;;;;;2368842;54;21577;-74
2022/12/06 02:56:25;;;;;;;4.53;2.50;;;9.00;72.20;;;;;;2368418;54;20914;-74
2022/12/06 02:58:55;;;;;;;4.55;2.37;;;9.00;72.20;;;;;;2369170;54;20929;-75
2022/12/06 03:01:27;;;;;;;7.03;2.78;;;9.00;72.20;;;;;;2368468;54;21005;-73
2022/12/06 03:05:51;;;;;;;4.93;2.40;;;9.10;72.30;;;;;;2621891;52;21017;-75
2022/12/06 03:08:23;;;;;;;4.22;2.45;;;9.00;72.10;;;;;;2341072;53;20997;-74
2022/12/06 03:10:57;;;;;;;4.20;2.10;;;9.00;72.10;;;;;;2341563;54;21683;-73
2022/12/06 03:17:08;;;;;;;4.40;2.37;;;9.00;72.00;;;;;;2475317;53;21048;-75
2022/12/06 03:19:35;;;;;;;3.78;2.00;;;9.10;71.40;;;;;;2340698;54;21086;-75
2022/12/06 03:22:22;;;;;;;4.65;2.47;;;9.00;72.20;;;;;;2520380;53;21003;-74
2022/12/06 03:24:48;;;;;;;4.07;2.35;;;9.00;71.90;;;;;;2357417;53;20950;-74
2022/12/06 03:27:16;;;;;;;4.47;2.40;;;9.00;72.50;;;;;;2368644;53;21789;-73
2022/12/06 03:29:56;;;;;;;3.45;1.80;;;9.00;72.50;;;;;;2415180;52;22575;-75
2022/12/06 03:32:28;;;;;;;4.87;2.12;;;9.00;72.10;;;;;;2364682;53;20957;-73
2022/12/06 03:34:55;;;;;;;5.40;2.27;;;9.00;72.30;;;;;;2363768;52;2592920;-76
2022/12/06 03:37:23;;;;;;;4.32;2.40;;;9.00;72.30;;;;;;2368470;53;21478;-74
2022/12/06 03:40:00;;;;;;;3.83;1.92;;;9.00;72.30;;;;;;2398608;53;21558;-75
2022/12/06 03:42:28;;;;;;;3.95;2.15;;;9.00;72.20;;;;;;2368231;53;20919;-75
2022/12/06 03:44:56;;;;;;;4.65;2.53;;;9.00;72.20;;;;;;2368201;53;20953;-74
2022/12/06 03:47:44;;;;;;;3.70;1.90;;;9.00;72.20;;;;;;2543915;52;20985;-73
2022/12/06 03:50:15;;;;;;;3.78;2.00;;;9.00;72.10;;;;;;2368546;53;20994;-74
2022/12/06 03:52:42;;;;;;;4.55;2.45;;;9.00;72.00;;;;;;2368089;53;20993;-73
2022/12/06 03:55:08;;;;;;;4.30;2.33;;;9.00;72.00;;;;;;2368692;53;21017;-73
2022/12/06 03:57:35;;;;;;;4.30;2.35;;;9.00;72.10;;;;;;2348165;54;21067;-73
2022/12/06 04:00:02;;;;;;;4.40;2.15;;;8.90;72.00;;;;;;2364051;53;21533;-73
2022/12/06 04:02:29;;;;;;;4.50;2.35;;;8.90;72.00;;;;;;2368145;53;20927;-72
2022/12/06 04:04:55;;;;;;;4.72;2.58;;;8.90;72.10;;;;;;2587879;52;20968;-75
2022/12/06 04:07:21;;;;;;;4.65;2.45;;;8.90;72.20;;;;;;2358946;53;20980;-74
2022/12/06 04:10:02;;;;;;;4.00;1.95;;;8.90;72.20;;;;;;2354180;53;20902;-74
2022/12/06 04:15:14;;;;;;;3.75;1.95;;;8.90;72.20;;;;;;2368355;53;20974;-73
2022/12/06 04:20:26;;;;;;;3.53;1.75;;;8.90;72.00;;;;;;2389251;53;21818;-73
2022/12/06 04:23:02;;;;;;;4.78;2.08;;;8.90;71.90;;;;;;2346247;53;21047;-73
2022/12/06 04:25:33;;;;;;;3.78;1.70;;;8.90;71.90;;;;;;2368844;54;20934;-73
2022/12/06 04:39:04;;;;;;;3.83;1.75;;;8.70;71.70;;;;;;2369113;54;20906;-73
2022/12/06 04:44:15;;;;;;;5.10;2.83;;;8.70;71.60;;;;;;2620470;52;21376;-74
2022/12/06 04:46:41;;;;;;;4.82;2.75;;;8.70;71.60;;;;;;2620725;52;21326;-72
2022/12/06 04:49:08;;;;;;;4.22;2.45;;;8.70;71.60;;;;;;2368056;54;20989;-74
2022/12/06 04:51:38;;;;;;;3.90;2.10;;;8.60;71.60;;;;;;2368302;54;21025;-75
2022/12/06 04:54:06;;;;;;;4.70;2.50;;;8.60;71.70;;;;;;2368701;53;21056;-73
2022/12/06 04:56:33;;;;;;;5.35;3.00;;;8.60;71.80;;;;;;2368473;54;20950;-73
2022/12/06 04:58:59;;;;;;;4.25;2.35;;;8.60;71.90;;;;;;2368387;54;21949;-75
2022/12/06 05:01:26;;;;;;;4.57;2.70;;;8.60;72.10;;;;;;2368566;54;20930;-73
2022/12/06 05:03:52;;;;;;;4.12;2.30;;;8.60;72.10;;;;;;2368154;54;20954;-74
2022/12/06 05:06:18;;;;;;;4.40;2.62;;;8.60;72.10;;;;;;2620950;52;21014;-75
2022/12/06 05:08:46;;;;;;;4.62;2.85;;;8.60;72.20;;;;;;2368393;54;20937;-73
2022/12/06 05:11:13;;;;;;;4.40;2.47;;;8.60;72.20;;;;;;2368795;54;21549;-75
2022/12/06 05:13:40;;;;;;;3.75;2.17;;;8.60;72.20;;;;;;2368864;53;21006;-75
2022/12/06 05:16:06;;;;;;;4.80;2.12;;;8.60;72.30;;;;;;2368944;54;20954;-75
2022/12/06 05:18:33;;;;;;;4.50;2.65;;;8.60;72.30;;;;;;2620837;52;20942;-75
2022/12/06 05:21:07;;;;;;;4.78;2.33;;;8.60;72.40;;;;;;2370350;54;21501;-73
2022/12/06 05:23:33;;;;;;;3.97;2.30;;;8.60;72.40;;;;;;2620409;52;21451;-74
2022/12/06 05:26:00;;;;;;;4.87;2.55;;;8.60;72.40;;;;;;2360715;54;21018;-73
2022/12/06 05:28:27;;;;;;;5.05;2.70;;;8.60;72.30;;;;;;2356478;54;21501;-76
2022/12/06 05:30:53;;;;;;;6.03;2.80;;;8.60;72.40;;;;;;2350552;54;20913;-74
2022/12/06 05:33:23;;;;;;;4.78;2.33;;;8.60;72.30;;;;;;2474464;52;20941;-74
2022/12/06 05:35:49;;;;;;;4.50;2.40;;;8.60;72.40;;;;;;2621426;52;20969;-74
2022/12/06 05:38:16;;;;;;;5.25;2.75;;;8.60;72.40;;;;;;2592431;52;20926;-73
2022/12/06 05:40:45;;;;;;;4.32;2.47;;;8.60;72.50;;;;;;2368959;54;21292;-75
2022/12/06 05:43:14;;;;;;;4.43;2.58;;;8.60;72.40;;;;;;2352846;53;20963;-73
2022/12/06 05:45:43;;;;;;;5.03;2.80;;;8.60;72.40;;;;;;2365194;53;20946;-73
2022/12/06 05:48:13;;;;;;;4.18;2.47;;;8.70;72.50;;;;;;2368985;54;21486;-74
2022/12/06 05:50:41;;;;;;;4.75;2.80;;;8.60;72.40;;;;;;2368759;54;20954;-74
2022/12/06 05:53:11;;;;;;;3.92;2.42;;;8.60;72.40;;;;;;2368394;53;20922;-73
2022/12/06 05:55:37;;;;;;;4.40;2.45;;;8.70;72.40;;;;;;2342969;54;20981;-73
2022/12/06 05:58:04;;;;;;;3.92;2.22;;;8.60;72.40;;;;;;2603387;52;21399;-73
2022/12/06 06:00:30;;;;;;;5.25;2.65;;;8.60;72.40;;;;;;2368087;54;21073;-75
2022/12/06 06:02:57;;;;;;;5.15;2.72;;;8.60;72.40;;;;;;2423350;52;20923;-75
2022/12/06 06:05:24;;;;;;;4.32;2.35;;;8.70;72.40;;;;;;2368299;54;20969;-73
2022/12/06 06:07:50;;;;;;;5.35;2.70;;;8.60;72.30;;;;;;2621478;52;20974;-73
2022/12/06 06:10:17;;;;;;;5.43;2.62;;;8.60;72.40;;;;;;2368623;54;20938;-73
2022/12/06 06:12:44;;;;;;;5.15;2.95;;;8.60;72.40;;;;;;2621273;52;20954;-76
2022/12/06 06:15:12;;;;;;;3.75;2.12;;;8.70;72.40;;;;;;2369125;54;20935;-74
2022/12/06 06:17:38;;;;;;;5.07;2.97;;;8.60;72.30;;;;;;2423302;52;20994;-75
2022/12/06 06:20:06;;;;;;;5.37;3.03;;;8.60;72.30;;;;;;2368756;54;22008;-73
2022/12/06 06:22:34;;;;;;;4.70;2.72;;;8.60;72.30;;;;;;2590680;52;21882;-75
2022/12/06 06:25:00;;;;;;;4.93;2.75;;;8.60;72.20;;;;;;2368567;53;20934;-74
2022/12/06 06:27:27;;;;;;;4.70;2.28;;;8.60;72.20;;;;;;2506705;52;20914;-74
2022/12/06 06:29:54;;;;;;;4.03;2.08;;;8.60;72.20;;;;;;2369305;54;20926;-73
2022/12/06 06:32:20;;;;;;;3.35;1.90;;;8.60;72.10;;;;;;2427674;52;21325;-74
2022/12/06 06:34:51;;;;;;;3.90;2.03;;;8.60;72.00;;;;;;2369093;54;20994;-75
2022/12/06 06:37:19;;;;;;;3.97;2.03;;;8.60;71.90;;;;;;2621432;52;20966;-75
2022/12/06 06:39:45;;;;;;;3.83;2.08;;;8.50;71.90;;;;;;2368939;54;20954;-75
2022/12/06 06:42:12;;;;;;;3.72;2.08;;;8.60;72.10;;;;;;2593359;52;21058;-75
2022/12/06 06:44:39;;;;;;;3.50;1.92;;;8.50;71.90;;;;;;2500884;52;21828;-74
2022/12/06 06:47:06;;;;;;;3.97;2.22;;;8.50;72.00;;;;;;2368643;54;20986;-73
2022/12/06 06:49:32;;;;;;;6.07;2.20;;;8.50;72.00;;;;;;2621233;52;20906;-74
2022/12/06 06:51:58;;;;;;;3.58;2.03;;;8.50;72.00;;;;;;2621367;52;21375;-73
2022/12/06 06:54:26;;;;;;;4.18;2.15;;;8.50;72.00;;;;;;2369257;54;21002;-72
2022/12/06 06:56:56;;;;;;;3.90;2.20;;;8.50;72.00;;;;;;2368747;54;21246;-73
2022/12/06 06:59:25;;;;;;;4.28;2.67;;;8.50;72.00;;;;;;2373638;53;21101;-73
2022/12/06 07:01:53;;;;;;;4.07;2.35;;;8.50;72.20;;;;;;2417064;52;20995;-73
2022/12/06 07:04:19;;;;;;;4.97;2.72;;;8.50;72.20;;;;;;2342950;54;20993;-73
2022/12/06 07:06:46;;;;;;;4.35;2.55;;;8.40;72.20;;;;;;2359866;53;20930;-74
2022/12/06 07:09:14;;;;;;;4.05;2.30;;;8.50;72.20;;;;;;2370115;54;21029;-74
2022/12/06 07:11:41;;;;;;;4.03;2.20;;;8.50;72.20;;;;;;2369897;54;21498;-73
2022/12/06 07:14:07;;;;;;;3.92;2.35;;;8.50;72.20;;;;;;2370271;54;20930;-74
2022/12/06 07:16:37;;;;;;;4.70;2.55;;;8.40;72.10;;;;;;2622021;52;21724;-75
2022/12/06 07:19:03;;;;;;;4.60;2.42;;;8.50;72.20;;;;;;2371280;54;20959;-73
2022/12/06 07:21:34;;;;;;;5.05;2.40;;;8.40;72.10;;;;;;2622840;52;20938;-72
2022/12/06 07:24:01;;;;;;;4.28;2.28;;;8.50;72.20;;;;;;2622993;52;20927;-73
2022/12/06 07:26:28;;;;;;;4.82;2.60;;;8.50;72.20;;;;;;2522357;52;20946;-73
2022/12/06 07:28:56;;;;;;;5.12;2.90;;;8.40;72.20;;;;;;2369363;54;21917;-75
2022/12/06 07:31:25;;;;;;;5.80;2.72;;;8.40;72.20;;;;;;2530555;52;20966;-74
2022/12/06 07:33:55;;;;;;;5.95;2.92;;;8.40;72.30;;;;;;2370132;54;21221;-74
2022/12/06 07:36:23;;;;;;;5.53;2.90;;;8.50;72.40;;;;;;2428859;52;20946;-75
2022/12/06 07:38:52;;;;;;;5.37;2.67;;;8.50;72.50;;;;;;2349266;53;22435;-73
2022/12/06 07:46:49;;;;;;;4.62;2.62;;;8.50;72.50;;;;;;2621222;52;20923;-73
2022/12/06 07:49:16;;;;;;;4.25;2.53;;;8.40;72.30;;;;;;2369743;54;21025;-74
2022/12/06 07:51:43;;;;;;;5.40;3.12;;;8.40;72.30;;;;;;2369022;53;21001;-75
2022/12/06 07:54:10;;;;;;;4.45;2.50;;;8.50;72.40;;;;;;2369062;54;20938;-74
2022/12/06 07:56:37;;;;;;;5.87;3.20;;;8.40;72.40;;;;;;2456342;52;21010;-73
2022/12/06 07:59:03;;;;;;;4.97;2.80;;;8.40;72.40;;;;;;2621414;52;21746;-75
2022/12/06 08:01:31;;;;;;;5.85;2.92;;;8.40;72.50;;;;;;2621758;52;20982;-73
2022/12/06 08:04:01;;;;;;;5.43;2.87;;;8.40;72.40;;;;;;2519312;52;21061;-74
2022/12/06 08:06:29;;;;;;;5.62;3.28;;;8.40;72.40;;;;;;2622821;52;21022;-75
2022/12/06 08:08:55;;;;;;;6.22;3.50;;;8.50;72.50;;;;;;2369952;54;21016;-75
2022/12/06 08:11:23;;;;;;;5.78;3.20;;;8.50;72.50;;;;;;2370581;54;21466;-73
2022/12/06 08:13:50;;;;;;;5.53;3.33;;;8.50;72.40;;;;;;2369565;54;20938;-74
2022/12/06 08:16:17;;;;;;;5.62;3.28;;;8.50;72.40;;;;;;2369496;53;20938;-75
2022/12/06 08:18:44;;;;;;;5.62;3.12;;;8.50;72.40;;;;;;2369990;54;20965;-75
2022/12/06 08:21:13;;;;;;;5.18;3.10;;;8.50;72.30;;;;;;2500277;52;20977;-74
2022/12/06 08:23:40;;;;;;;6.00;3.10;;;8.50;72.30;;;;;;2555530;52;21001;-73
2022/12/06 08:26:08;;;;;;;5.28;3.35;;;8.50;72.30;;;;;;2621939;52;21756;-73
2022/12/06 08:28:35;;;;;;;5.80;3.08;;;8.50;72.30;;;;;;2369124;54;21001;-74
2022/12/06 08:31:19;;;;;;;5.68;3.62;;;8.50;72.40;;;;;;2622135;52;20970;-73
2022/12/06 08:34:38;;;;;;;5.65;3.40;;;8.50;72.30;;;;;;2361164;54;20934;-73
2022/12/06 08:37:05;;;;;;;5.47;3.25;;;8.50;72.20;;;;;;2537110;52;22098;-75
2022/12/06 08:39:31;;;;;;;5.55;3.15;;;8.50;72.50;;;;;;2615829;52;21001;-73
2022/12/06 08:42:01;;;;;;;5.30;3.10;;;8.50;72.50;;;;;;2472341;52;20982;-74
2022/12/06 08:44:28;;;;;;;5.25;3.05;;;8.50;73.20;;;;;;2350719;53;20969;-75
2022/12/06 08:46:55;;;;;;;5.95;3.37;;;8.50;72.50;;;;;;2622696;52;20955;-75
2022/12/06 08:49:22;;;;;;;4.80;3.10;;;8.50;72.40;;;;;;2370711;54;21007;-73
2022/12/06 08:51:48;;;;;;;5.50;3.20;;;8.50;72.30;;;;;;2490048;52;20957;-75
2022/12/06 08:54:16;;;;;;;6.00;3.25;;;8.50;72.30;;;;;;2370651;53;20954;-74
2022/12/06 08:56:42;;;;;;;5.85;3.60;;;8.50;72.30;;;;;;2370329;54;20961;-75
2022/12/06 08:59:09;;;;;;;6.15;3.72;;;8.50;72.30;;;;;;2370941;53;20930;-75
2022/12/06 09:01:36;;;;;;;7.20;3.75;;;8.50;73.00;;;;;;2408133;52;21777;-75
2022/12/06 09:04:04;;;;;;;5.53;3.53;;;8.50;72.30;;;;;;2370466;54;21037;-75
2022/12/06 09:06:30;;;;;;;5.95;3.72;;;8.50;72.20;;;;;;2417103;52;20945;-74
2022/12/06 09:09:00;;;;;;;6.10;3.78;;;8.50;72.20;;;;;;2363987;53;21454;-75
2022/12/06 09:11:27;;;;;;;5.65;3.28;;;8.40;72.10;;;;;;2607873;52;20946;-73
2022/12/06 09:13:53;;;;;;;5.82;3.62;;;8.40;72.10;;;;;;2370107;53;20958;-75
2022/12/06 09:16:21;;;;;;;5.37;3.35;;;8.50;72.30;;;;;;2421069;52;21463;-75
2022/12/06 09:18:48;;;;;;;6.25;3.65;;;8.50;72.40;;;;;;2365160;53;20939;-75
2022/12/06 09:21:23;;;;;;;5.57;3.33;;;8.50;72.50;;;;;;2604452;52;20998;-75
2022/12/06 09:23:53;;;;;;;6.75;3.97;;;8.50;72.50;;;;;;2442997;52;20966;-73
2022/12/06 09:26:20;;;;;;;6.15;3.75;;;8.50;72.50;;;;;;2511317;52;21713;-76
2022/12/06 09:28:48;;;;;;;6.65;4.07;;;8.50;72.50;;;;;;2370017;53;21006;-74
2022/12/06 09:31:16;;;;;;;6.57;4.28;;;8.50;72.60;;;;;;2444426;52;20930;-73
2022/12/06 09:33:42;;;;;;;6.55;3.90;;;8.50;72.60;;;;;;2370571;54;20990;-73
2022/12/06 09:36:17;;;;;;;6.60;4.07;;;8.50;72.60;;;;;;2561477;52;21486;-74
2022/12/06 09:38:43;;;;;;;5.75;3.42;;;8.50;72.60;;;;;;2369103;54;20959;-75
2022/12/06 09:41:53;;;;;;;6.65;3.80;;;8.60;72.70;;;;;;2351961;53;21459;-73
2022/12/06 09:45:45;;;;;;;5.85;3.65;;;8.60;72.40;;;;;;2370082;54;20989;-74
2022/12/06 09:48:41;;;;;;;5.10;2.87;;;8.60;71.90;;;;;;2485789;52;20938;-74
2022/12/06 09:51:55;;;;;;;5.90;3.50;;;8.70;72.70;;;;;;2370975;54;21677;-73
2022/12/06 09:56:07;;;;;;;6.40;3.47;;;8.70;72.50;;;;;;2622473;52;21025;-75
2022/12/06 10:00:13;;;;;;;5.72;3.25;;;8.70;72.40;;;;;;2370034;54;20958;-74
2022/12/06 10:06:11;;;;;;;5.45;3.25;;;8.70;71.90;;;;;;2504753;52;21029;-74
2022/12/06 10:09:02;;;;;;;4.72;2.65;;;8.70;72.30;;;;;;2533947;53;20945;-74
2022/12/06 10:15:29;;;;;;;7.07;3.72;;;8.80;72.20;;;;;;2589035;53;20988;-74
2022/12/06 10:18:33;;;;;;;5.57;3.50;;;8.80;72.30;;;;;;2456962;53;20936;-74
2022/12/06 10:22:54;;;;;;;6.32;3.62;;;8.80;72.20;;;;;;2342690;53;21043;-73
2022/12/06 10:25:25;;;;;;;5.37;2.97;;;8.80;71.80;;;;;;2483782;53;20924;-73
2022/12/06 10:31:26;;;;;;;6.90;4.25;;;8.80;72.60;;;;;;2342675;53;20945;-72
2022/12/06 10:34:06;;;;;;;7.05;4.20;;;8.80;71.70;;;;;;2342589;53;20952;-73
2022/12/06 10:36:46;;;;;;;7.72;4.25;;;8.80;72.50;;;;;;2588489;53;20943;-74
2022/12/06 10:39:19;;;;;;;7.97;4.25;;;8.90;72.40;;;;;;2540856;53;20945;-74
2022/12/06 10:41:58;;;;;;;8.77;5.37;;;8.90;72.60;;;;;;2342317;54;20960;-75
2022/12/06 10:44:34;;;;;;;10.38;5.25;;;8.80;72.60;;;;;;2417821;53;20941;-72
2022/12/06 10:47:11;;;;;;;7.93;4.82;;;8.80;72.60;;;;;;2342821;54;20917;-73
2022/12/06 10:50:13;;;;;;;7.78;4.72;;;8.90;72.60;;;;;;2604920;52;20921;-74
2022/12/06 10:52:44;;;;;;;10.15;5.15;;;8.90;72.30;;;;;;2341620;54;20952;-75
2022/12/06 10:55:26;;;;;;;7.30;4.75;;;8.90;72.60;;;;;;2370668;54;20974;-74
2022/12/06 10:58:12;;;;;;;7.37;4.72;;;8.90;73.30;;;;;;2370680;54;20962;-74
2022/12/06 11:01:27;;;;;;;7.22;4.97;;;8.90;72.60;;;;;;2366258;52;21795;-73
2022/12/06 11:07:51;;;;;;;12.55;6.72;;;8.90;72.00;;;;;;2617359;52;21034;-76
2022/12/06 11:10:27;;;;;;;8.57;5.78;;;8.90;72.10;;;;;;2352832;54;20898;-74
2022/12/06 11:16:50;;;;;;;7.18;4.78;;;8.90;72.60;;;;;;2422080;52;21580;-75
2022/12/06 11:19:42;;;;;;;7.55;4.70;;;8.90;72.90;;;;;;2471169;52;20990;-73
2022/12/06 11:35:26;;;;;;;9.80;5.60;;;8.90;72.80;;;;;;2422344;52;21037;-73
2022/12/06 11:38:06;;;;;;;7.45;3.70;;;9.10;72.10;;;;;;2327735;52;22640;-75
2022/12/06 11:40:36;;;;;;;6.53;3.87;;;9.10;72.90;;;;;;2328835;54;20972;-74
2022/12/06 11:43:05;;;;;;;8.45;4.72;;;9.10;72.80;;;;;;2572243;53;20932;-74
2022/12/06 11:45:33;;;;;;;8.95;5.75;;;9.00;72.80;;;;;;2328377;54;20921;-75
2022/12/06 11:48:04;;;;;;;9.85;5.35;;;9.00;72.80;;;;;;2396007;53;21008;-75
2022/12/06 11:50:31;;;;;;;13.52;7.28;;;9.10;73.00;;;;;;2345247;53;21686;-75
2022/12/06 11:53:02;;;;;;;11.27;6.95;;;9.10;73.10;;;;;;2359390;53;20935;-73
2022/12/06 11:55:35;;;;;;;11.60;6.68;;;9.10;73.30;;;;;;2318375;54;21382;-75
2022/12/06 11:59:35;;;;;;;8.05;5.25;;;9.10;73.30;;;;;;2343001;53;20909;-75
2022/12/06 12:02:02;;;;;;;7.55;4.05;;;9.20;73.10;;;;;;2328839;54;20928;-75
2022/12/06 12:04:42;;;;;;;8.93;5.00;;;9.20;73.10;;;;;;2328850;54;20933;-74
2022/12/06 12:07:16;;;;;;;8.43;4.22;;;9.20;72.70;;;;;;2328586;54;20928;-74
2022/12/06 12:09:56;;;;;;;8.32;5.18;;;9.20;72.80;;;;;;2322174;53;20961;-73
2022/12/06 12:12:23;;;;;;;8.15;4.95;;;9.20;72.90;;;;;;2386618;53;20941;-73
2022/12/06 12:14:52;;;;;;;7.53;4.93;;;9.20;73.00;;;;;;2364004;53;20957;-74
2022/12/06 12:17:21;;;;;;;8.68;4.87;;;9.20;72.90;;;;;;2369937;53;21064;-72
2022/12/06 12:19:56;;;;;;;7.75;5.05;;;9.20;72.80;;;;;;2334131;54;20946;-73
2022/12/06 12:22:41;;;;;;;8.40;5.07;;;9.20;72.80;;;;;;2332623;54;21012;-75
2022/12/06 12:25:30;;;;;;;9.60;5.68;;;9.20;72.70;;;;;;2386933;53;20948;-75
2022/12/06 12:28:00;;;;;;;8.75;4.62;;;9.20;72.30;;;;;;2327950;54;20928;-75
2022/12/06 12:31:00;;;;;;;8.98;5.43;;;9.30;72.50;;;;;;2405875;53;20952;-73
2022/12/06 12:33:27;;;;;;;9.60;5.90;;;9.20;72.20;;;;;;2328396;54;20929;-74
2022/12/06 12:36:56;;;;;;;9.20;4.78;;;9.30;72.60;;;;;;2571051;53;20929;-74
2022/12/06 12:39:44;;;;;;;7.07;3.70;;;9.20;71.90;;;;;;2364012;53;20946;-75
2022/12/06 12:42:31;;;;;;;6.75;4.10;;;9.20;72.20;;;;;;2571125;53;20913;-73
2022/12/06 12:44:58;;;;;;;6.65;3.80;;;9.20;72.50;;;;;;2328362;54;21506;-75
2022/12/06 12:47:25;;;;;;;8.45;3.92;;;9.20;72.90;;;;;;2516111;53;20941;-73
2022/12/06 12:50:17;;;;;;;8.60;4.75;;;9.20;73.00;;;;;;2327096;54;20960;-75
2022/12/06 12:52:43;;;;;;;8.45;4.10;;;9.30;72.90;;;;;;2376322;53;21004;-73
2022/12/06 12:55:23;;;;;;;7.68;4.10;;;9.30;73.40;;;;;;2326592;54;21370;-74
2022/12/06 12:57:52;;;;;;;5.85;3.20;;;9.30;73.40;;;;;;2367084;53;20961;-74
2022/12/06 13:00:21;;;;;;;7.97;3.35;;;9.40;73.60;;;;;;2570126;53;21025;-73
2022/12/06 13:02:50;;;;;;;6.32;3.10;;;9.40;73.60;;;;;;2396594;54;20943;-73
2022/12/06 13:05:22;;;;;;;6.62;3.22;;;9.40;73.50;;;;;;2433745;53;21699;-73
2022/12/06 13:08:21;;;;;;;6.22;3.03;;;9.50;73.40;;;;;;2323307;54;21092;-75
2022/12/06 13:10:51;;;;;;;5.47;2.95;;;9.50;73.10;;;;;;2316831;54;20980;-74
2022/12/06 13:13:25;;;;;;;7.68;3.25;;;9.50;73.30;;;;;;2402614;53;20982;-74
2022/12/06 13:15:52;;;;;;;7.03;3.55;;;9.50;73.00;;;;;;2305837;54;20918;-74
2022/12/06 13:18:31;;;;;;;6.78;3.17;;;9.50;73.00;;;;;;2544501;53;21893;-75
2022/12/06 13:20:59;;;;;;;6.47;3.03;;;9.50;72.90;;;;;;2320297;54;21754;-75
2022/12/06 13:23:30;;;;;;;6.95;3.40;;;9.50;73.10;;;;;;2305889;54;21017;-75
2022/12/06 13:26:42;;;;;;;5.78;2.62;;;9.60;73.10;;;;;;2305464;54;21030;-75
2022/12/06 13:30:00;;;;;;;6.85;3.28;;;9.60;72.30;;;;;;2305635;54;21467;-74
2022/12/06 13:32:34;;;;;;;6.55;3.30;;;9.60;72.10;;;;;;2434049;53;21277;-73
2022/12/06 13:35:21;;;;;;;5.90;3.28;;;9.60;72.50;;;;;;2339566;54;20919;-75
2022/12/06 13:37:52;;;;;;;6.30;3.35;;;9.60;72.50;;;;;;2306659;54;21620;-74
2022/12/06 13:40:39;;;;;;;8.40;4.60;;;9.60;72.50;;;;;;2423478;53;20969;-74
2022/12/06 13:43:46;;;;;;;6.82;4.05;;;9.50;71.80;;;;;;2328190;54;21028;-74
2022/12/06 13:46:21;;;;;;;9.25;3.75;;;9.50;72.20;;;;;;2537279;53;21553;-74
2022/12/06 13:49:03;;;;;;;9.35;4.20;;;9.50;72.00;;;;;;2327834;55;20913;-75
2022/12/06 13:51:50;;;;;;;8.35;4.32;;;9.50;71.70;;;;;;2354444;53;21000;-74
2022/12/06 13:54:21;;;;;;;8.38;4.45;;;9.50;71.50;;;;;;2310321;54;21020;-72
2022/12/06 13:56:47;;;;;;;10.13;4.93;;;9.40;71.70;;;;;;2328445;54;20984;-73
2022/12/06 13:59:35;;;;;;;10.50;5.45;;;9.40;71.70;;;;;;2328395;54;21012;-75
2022/12/06 14:02:39;;;;;;;9.32;5.12;;;9.40;71.20;;;;;;2572014;53;20997;-74
2022/12/06 14:06:48;;;;;;;11.02;5.70;;;9.30;70.90;;;;;;2324292;54;21004;-73
2022/12/06 14:09:16;;;;;;;8.70;4.78;;;9.30;70.70;;;;;;2328689;54;20937;-73
2022/12/06 14:11:42;;;;;;;8.80;4.40;;;9.20;71.40;;;;;;2506066;53;20916;-73
2022/12/06 14:14:20;;;;;;;11.65;5.50;;;9.20;71.50;;;;;;2340565;53;20968;-76
2022/12/06 14:16:55;;;;;;;9.07;4.47;;;9.20;71.50;;;;;;2329155;54;20961;-74
2022/12/06 14:19:28;;;;;;;8.70;4.45;;;9.10;71.90;;;;;;2533091;53;20944;-73
2022/12/06 14:22:01;;;;;;;9.57;5.03;;;9.10;71.90;;;;;;2328520;54;20979;-72
2022/12/06 14:24:52;;;;;;;8.30;4.47;;;9.10;72.00;;;;;;2387980;53;20917;-74
2022/12/06 14:27:19;;;;;;;8.90;5.00;;;9.10;72.10;;;;;;2572112;53;21361;-75
2022/12/06 14:30:13;;;;;;;11.73;5.57;;;9.10;72.10;;;;;;2361628;53;20988;-75
2022/12/06 14:32:42;;;;;;;9.70;5.22;;;9.10;71.60;;;;;;2318205;53;20953;-73
2022/12/06 14:35:37;;;;;;;9.35;5.15;;;9.00;71.90;;;;;;2322463;53;20901;-73
2022/12/06 14:38:22;;;;;;;12.07;5.97;;;9.00;72.30;;;;;;2319365;53;21061;-73
2022/12/06 14:43:38;;;;;;;7.47;4.47;;;9.00;72.10;;;;;;2338207;53;20957;-74
2022/12/06 14:46:06;;;;;;;8.93;4.37;;;9.00;72.20;;;;;;2582481;53;20975;-76